FYKT/KMP METAR and TAF weather

Enter ICAO airport designator
Station Type Date Time Source
FYKT METAR 2020/07/15 05:00 UTC NOAA

FYKT 150500Z 08009KT CAVOK 04/M02 Q1033


Station Type Date Time Source
FYKT Decoded METAR 2020/07/15 05:00 UTC NOAA

Keetmanshoop, Namibia (FYKT) 26-32S 018-07E 1100M
Jul 15, 2020 - 01:00 AM EDT / 2020.07.15 0500 UTC
Wind: from the E (080 degrees) at 10 MPH (9 KT):0
Visibility: greater than 7 mile(s):0
Temperature: 39 F (4 C)
Dew Point: 28 F (-2 C)
Relative Humidity: 64%
Pressure (altimeter): 30.50 in. Hg (1033 hPa)
ob: FYKT 150500Z 08009KT CAVOK 04/M02 Q1033
cycle: 5

Station Type Date Time Source
FYKT TAF 2020/07/15 06:51 UTC NOAA

TAF TAF FYKT 150400Z 1506/1606 08012KT CAVOK

Example: see airport list